createdAt,value
2022-08-17T00:03:51.051Z,0.00
2022-08-17T00:06:50.834Z,0.00
2022-08-17T00:14:51.511Z,0.00
2022-08-17T00:22:50.154Z,0.00
2022-08-17T00:26:49.297Z,0.00
2022-08-17T00:27:49.261Z,0.00
2022-08-17T00:29:49.781Z,0.00
2022-08-17T00:33:16.083Z,0.00
2022-08-17T00:33:49.009Z,0.00
2022-08-17T00:34:48.738Z,0.00
2022-08-17T00:36:48.628Z,0.00
2022-08-17T00:37:48.513Z,0.00
2022-08-17T00:38:48.943Z,0.00
2022-08-17T00:39:48.441Z,0.00
2022-08-17T00:40:48.452Z,0.00
2022-08-17T00:42:48.206Z,0.00
2022-08-17T00:43:48.267Z,0.00
2022-08-17T00:53:47.312Z,0.00
2022-08-17T00:54:47.204Z,0.00
2022-08-17T00:55:47.132Z,0.00
2022-08-17T00:56:47.055Z,0.00
2022-08-17T00:57:46.980Z,0.00
2022-08-17T00:58:46.913Z,0.00
2022-08-17T00:59:46.831Z,0.00
2022-08-17T01:00:46.808Z,0.00
2022-08-17T01:01:46.759Z,0.00
2022-08-17T01:02:46.845Z,0.00
2022-08-17T01:03:47.283Z,0.00
2022-08-17T01:04:46.799Z,0.00
2022-08-17T01:07:46.268Z,0.00
2022-08-17T01:23:45.235Z,0.00
2022-08-17T01:24:45.972Z,0.00
2022-08-17T01:29:45.227Z,0.00
2022-08-17T01:31:44.682Z,0.00
2022-08-17T01:37:45.305Z,0.00
2022-08-17T02:25:00.815Z,0.00
2022-08-17T03:02:37.641Z,0.00
2022-08-17T04:13:32.313Z,52.00
2022-08-17T04:14:32.249Z,60.00
2022-08-17T04:15:32.129Z,64.00
2022-08-17T04:16:32.050Z,68.00
2022-08-17T04:17:31.975Z,76.00
2022-08-17T04:18:31.903Z,80.00
2022-08-17T04:19:31.825Z,88.00
2022-08-17T04:20:31.751Z,92.00
2022-08-17T04:21:31.674Z,100.00
2022-08-17T04:22:34.345Z,104.00
2022-08-17T04:23:31.529Z,108.00
2022-08-17T04:24:31.450Z,116.00
2022-08-17T04:25:31.373Z,124.00
2022-08-17T04:26:54.134Z,132.00
2022-08-17T04:27:31.223Z,144.00
2022-08-17T04:30:31.237Z,168.00
2022-08-17T04:31:31.170Z,176.00
2022-08-17T04:33:31.212Z,196.00
2022-08-17T04:35:30.660Z,212.00
2022-08-17T04:40:30.694Z,256.00
2022-08-17T04:41:30.610Z,264.00
2022-08-17T04:42:30.442Z,268.00
2022-08-17T04:45:32.130Z,292.00
2022-08-17T04:53:29.996Z,340.00
2022-08-17T04:57:29.413Z,400.00
2022-08-17T04:58:29.139Z,416.00
2022-08-17T04:59:28.857Z,424.00
2022-08-17T05:01:28.777Z,428.00
2022-08-17T05:02:29.343Z,436.00
2022-08-17T05:06:28.332Z,500.00
2022-08-17T05:17:27.705Z,1008.00
2022-08-17T05:20:27.278Z,896.00
2022-08-17T05:23:27.258Z,940.00
2022-08-17T05:24:43.060Z,984.00
2022-08-17T05:26:29.336Z,1084.00
2022-08-17T05:34:26.639Z,1592.00
2022-08-17T05:35:26.870Z,1628.00
2022-08-17T05:36:42.949Z,1684.00
2022-08-17T05:40:26.906Z,2028.00
2022-08-17T05:41:27.938Z,2032.00
2022-08-17T05:45:54.153Z,2408.00
2022-08-17T05:46:25.545Z,2464.00
2022-08-17T05:47:25.271Z,2592.00
2022-08-17T05:48:39.786Z,2712.00
2022-08-17T05:49:25.121Z,2796.00
2022-08-17T05:50:27.147Z,2736.00
2022-08-17T05:51:24.983Z,2676.00
2022-08-17T05:53:24.791Z,2580.00
2022-08-17T05:55:25.193Z,2592.00
2022-08-17T05:56:29.629Z,2588.00
2022-08-17T05:57:24.534Z,2592.00
2022-08-17T05:58:24.462Z,2588.00
2022-08-17T05:59:24.389Z,2544.00
2022-08-17T06:01:24.327Z,2408.00
2022-08-17T06:02:24.676Z,2348.00
2022-08-17T06:03:24.097Z,2288.00
2022-08-17T06:04:23.986Z,2252.00
2022-08-17T06:05:23.952Z,2212.00
2022-08-17T06:06:25.227Z,2244.00
2022-08-17T06:08:23.725Z,2376.00
2022-08-17T06:09:28.853Z,2460.00
2022-08-17T06:10:23.751Z,2544.00
2022-08-17T06:11:23.622Z,2664.00
2022-08-17T06:12:23.453Z,2712.00
2022-08-17T06:13:23.332Z,2768.00
2022-08-17T06:14:23.259Z,2804.00
2022-08-17T06:15:23.187Z,2784.00
2022-08-17T06:16:33.891Z,2768.00
2022-08-17T06:17:23.244Z,2764.00
2022-08-17T06:18:22.969Z,2864.00
2022-08-17T06:19:22.897Z,2892.00
2022-08-17T06:20:22.825Z,2884.00
2022-08-17T06:21:23.779Z,2892.00
2022-08-17T06:22:22.682Z,2908.00
2022-08-17T06:23:22.609Z,2908.00
2022-08-17T06:24:22.551Z,2900.00
2022-08-17T06:25:22.667Z,2912.00
2022-08-17T06:26:25.835Z,2892.00
2022-08-17T06:27:22.321Z,2824.00
2022-08-17T06:28:22.248Z,2708.00
2022-08-17T06:34:21.817Z,2204.00
2022-08-17T06:35:21.977Z,2232.00
2022-08-17T06:43:21.168Z,2616.00
2022-08-17T06:44:43.262Z,2812.00
2022-08-17T06:45:21.022Z,3080.00
2022-08-17T06:46:20.951Z,3116.00
2022-08-17T06:47:28.179Z,2980.00
2022-08-17T06:48:20.811Z,2988.00
2022-08-17T06:49:23.356Z,3280.00
2022-08-17T06:50:20.665Z,3420.00
2022-08-17T06:51:20.593Z,3444.00
2022-08-17T06:52:45.946Z,3440.00
2022-08-17T06:53:20.448Z,3396.00
2022-08-17T06:54:20.375Z,3368.00
2022-08-17T06:55:20.319Z,3280.00
2022-08-17T06:56:20.232Z,3076.00
2022-08-17T06:57:20.167Z,2892.00
2022-08-17T06:58:20.091Z,2748.00
2022-08-17T06:59:20.022Z,2744.00
2022-08-17T07:00:19.983Z,2836.00
2022-08-17T07:01:20.992Z,3060.00
2022-08-17T07:02:29.198Z,3304.00
2022-08-17T07:03:19.734Z,3420.00
2022-08-17T07:04:19.660Z,3340.00
2022-08-17T07:05:19.589Z,3212.00
2022-08-17T07:06:19.517Z,3272.00
2022-08-17T07:07:19.448Z,3440.00
2022-08-17T07:08:19.374Z,3596.00
2022-08-17T07:09:19.306Z,3804.00
2022-08-17T07:10:19.533Z,4024.00
2022-08-17T07:11:19.164Z,4248.00
2022-08-17T07:12:19.091Z,4504.00
2022-08-17T07:13:19.022Z,4728.00
2022-08-17T07:14:18.952Z,4844.00
2022-08-17T07:15:18.878Z,4884.00
2022-08-17T07:17:01.296Z,4964.00
2022-08-17T07:18:01.454Z,4932.00
2022-08-17T07:19:01.150Z,4924.00
2022-08-17T07:20:01.080Z,4764.00
2022-08-17T07:21:01.009Z,4572.00
2022-08-17T07:22:00.937Z,4472.00
2022-08-17T07:23:43.353Z,4160.00
2022-08-17T07:24:43.291Z,3956.00
2022-08-17T07:25:45.875Z,3856.00
2022-08-17T07:26:43.379Z,3904.00
2022-08-17T07:27:44.050Z,3940.00
2022-08-17T07:31:54.284Z,4628.00
2022-08-17T07:32:54.419Z,4772.00
2022-08-17T07:33:57.943Z,4832.00
2022-08-17T07:34:54.038Z,4752.00
2022-08-17T07:35:53.972Z,4636.00
2022-08-17T07:36:53.894Z,4496.00
2022-08-17T07:37:53.823Z,4336.00
2022-08-17T07:38:53.752Z,4200.00
2022-08-17T07:40:15.609Z,4136.00
2022-08-17T07:40:53.611Z,4196.00
2022-08-17T07:41:59.261Z,4340.00
2022-08-17T07:45:03.476Z,5292.00
2022-08-17T07:46:03.406Z,5628.00
2022-08-17T07:47:03.332Z,5796.00
2022-08-17T07:48:03.264Z,5840.00
2022-08-17T07:49:03.195Z,5840.00
2022-08-17T07:50:03.122Z,5720.00
2022-08-17T07:51:03.050Z,5484.00
2022-08-17T07:52:47.492Z,5128.00
2022-08-17T07:53:02.907Z,4744.00
2022-08-17T07:54:14.114Z,4428.00
2022-08-17T07:56:34.413Z,4264.00
2022-08-17T07:58:12.703Z,4152.00
2022-08-17T07:59:12.674Z,4088.00
2022-08-17T08:00:12.779Z,4100.00
2022-08-17T08:01:12.891Z,4240.00
2022-08-17T08:02:13.672Z,4440.00
2022-08-17T08:03:12.352Z,4608.00
2022-08-17T08:04:15.212Z,4680.00
2022-08-17T08:05:12.212Z,4696.00
2022-08-17T08:06:54.626Z,4660.00
2022-08-17T08:07:54.556Z,4484.00
2022-08-17T08:08:54.486Z,4272.00
2022-08-17T08:09:54.416Z,4208.00
2022-08-17T08:10:54.345Z,4344.00
2022-08-17T08:11:54.276Z,4696.00
2022-08-17T08:12:54.206Z,5088.00
2022-08-17T08:13:54.136Z,5292.00
2022-08-17T08:15:36.553Z,5216.00
2022-08-17T08:16:36.482Z,5260.00
2022-08-17T08:17:37.019Z,5456.00
2022-08-17T08:18:53.405Z,5576.00
2022-08-17T08:19:36.269Z,5560.00
2022-08-17T08:20:52.266Z,5512.00
2022-08-17T08:21:36.131Z,5452.00
2022-08-17T08:22:36.060Z,5416.00
2022-08-17T08:23:35.990Z,5216.00
2022-08-17T08:24:35.972Z,4940.00
2022-08-17T08:25:35.849Z,4660.00
2022-08-17T08:26:35.776Z,4312.00
2022-08-17T08:27:35.709Z,3996.00
2022-08-17T08:28:35.637Z,3716.00
2022-08-17T08:29:35.569Z,3468.00
2022-08-17T08:30:35.498Z,3260.00
2022-08-17T08:31:40.193Z,3048.00
2022-08-17T08:32:35.357Z,2852.00
2022-08-17T08:33:35.288Z,2720.00
2022-08-17T08:34:54.762Z,2600.00
2022-08-17T08:35:35.145Z,2492.00
2022-08-17T08:36:56.857Z,2436.00
2022-08-17T08:37:39.214Z,2424.00
2022-08-17T08:38:35.086Z,2440.00
2022-08-17T08:39:34.911Z,2412.00
2022-08-17T08:40:34.796Z,2452.00
2022-08-17T08:41:34.722Z,2592.00
2022-08-17T08:42:34.652Z,2752.00
2022-08-17T08:43:34.601Z,2916.00
2022-08-17T08:45:00.086Z,2980.00
2022-08-17T08:45:34.443Z,3024.00
2022-08-17T08:46:34.371Z,3056.00
2022-08-17T08:47:35.463Z,2952.00
2022-08-17T08:48:53.086Z,3060.00
2022-08-17T08:50:01.989Z,3340.00
2022-08-17T08:50:38.017Z,3748.00
2022-08-17T08:51:34.017Z,4400.00
2022-08-17T08:52:33.954Z,5296.00
2022-08-17T08:53:33.879Z,6236.00
2022-08-17T08:54:33.808Z,7020.00
2022-08-17T08:55:34.077Z,7160.00
2022-08-17T08:56:33.666Z,6912.00
2022-08-17T08:57:34.600Z,6324.00
2022-08-17T08:58:42.107Z,5748.00
2022-08-17T08:59:33.456Z,5536.00
2022-08-17T09:00:36.410Z,5164.00
2022-08-17T09:02:35.818Z,4004.00
2022-08-17T09:03:52.414Z,3496.00
2022-08-17T09:04:55.922Z,3244.00
2022-08-17T09:05:35.608Z,3096.00
2022-08-17T09:06:39.261Z,2952.00
2022-08-17T09:07:35.480Z,2800.00
2022-08-17T09:08:35.448Z,2636.00
2022-08-17T09:09:35.328Z,2584.00
2022-08-17T09:10:35.258Z,2620.00
2022-08-17T09:11:35.190Z,2724.00
2022-08-17T09:12:35.120Z,2848.00
2022-08-17T09:13:35.049Z,2884.00
2022-08-17T09:14:43.080Z,2748.00
2022-08-17T09:15:34.905Z,2652.00
2022-08-17T09:16:34.836Z,2620.00
2022-08-17T09:17:34.766Z,2648.00
2022-08-17T09:19:01.474Z,2812.00
2022-08-17T09:19:34.627Z,2992.00
2022-08-17T09:20:37.782Z,3212.00
2022-08-17T09:21:34.487Z,3420.00
2022-08-17T09:22:34.423Z,3660.00
2022-08-17T09:23:34.346Z,3820.00
2022-08-17T09:24:34.273Z,3924.00
2022-08-17T09:25:34.206Z,4072.00
2022-08-17T09:26:34.137Z,4116.00
2022-08-17T09:27:34.067Z,3928.00
2022-08-17T09:28:33.995Z,3660.00
2022-08-17T09:29:33.926Z,3300.00
2022-08-17T09:30:33.860Z,3104.00
2022-08-17T09:34:47.057Z,3312.00
2022-08-17T09:35:44.559Z,3400.00
2022-08-17T09:36:44.521Z,3320.00
2022-08-17T09:37:44.452Z,3204.00
2022-08-17T09:38:44.382Z,3184.00
2022-08-17T09:39:44.698Z,3076.00
2022-08-17T09:40:44.216Z,2952.00
2022-08-17T09:41:48.921Z,2828.00
2022-08-17T09:42:44.068Z,2724.00
2022-08-17T09:43:44.001Z,2716.00
2022-08-17T09:44:43.962Z,2812.00
2022-08-17T09:45:43.893Z,2812.00
2022-08-17T09:46:44.129Z,2796.00
2022-08-17T09:47:43.769Z,2852.00
2022-08-17T09:48:43.681Z,2956.00
2022-08-17T09:49:43.598Z,3040.00
2022-08-17T09:51:03.355Z,3092.00
2022-08-17T09:52:43.570Z,3200.00
2022-08-17T09:53:44.767Z,3248.00
2022-08-17T09:54:44.463Z,3184.00
2022-08-17T09:55:43.158Z,3124.00
2022-08-17T09:56:46.962Z,3200.00
2022-08-17T09:57:43.015Z,3472.00
2022-08-17T09:58:42.946Z,3676.00
2022-08-17T09:59:42.877Z,3676.00
2022-08-17T10:00:43.183Z,3628.00
2022-08-17T10:01:42.822Z,3892.00
2022-08-17T10:02:42.665Z,4344.00
2022-08-17T10:03:42.595Z,4580.00
2022-08-17T10:04:42.526Z,4740.00
2022-08-17T10:05:42.459Z,4972.00
2022-08-17T10:06:42.386Z,5288.00
2022-08-17T10:07:42.316Z,5648.00
2022-08-17T10:08:42.248Z,6112.00
2022-08-17T10:09:42.175Z,6608.00
2022-08-17T10:10:42.107Z,6928.00
2022-08-17T10:11:44.844Z,7152.00
2022-08-17T10:12:43.143Z,7364.00
2022-08-17T10:13:41.893Z,7648.00
2022-08-17T10:14:43.560Z,7712.00
2022-08-17T10:15:42.730Z,7448.00
2022-08-17T10:16:41.784Z,6924.00
2022-08-17T10:17:41.613Z,6560.00
2022-08-17T10:18:41.545Z,6264.00
2022-08-17T10:19:43.919Z,6228.00
2022-08-17T10:20:41.404Z,6360.00
2022-08-17T10:21:41.336Z,6480.00
2022-08-17T10:22:41.265Z,6408.00
2022-08-17T10:23:41.203Z,6284.00
2022-08-17T10:24:41.125Z,6196.00
2022-08-17T10:25:55.802Z,6192.00
2022-08-17T10:27:58.513Z,5812.00
2022-08-17T10:28:58.432Z,5192.00
2022-08-17T10:30:00.996Z,4656.00
2022-08-17T10:31:23.405Z,4268.00
2022-08-17T10:31:58.221Z,3956.00
2022-08-17T10:32:58.154Z,3668.00
2022-08-17T10:33:58.086Z,3460.00
2022-08-17T10:34:58.016Z,3328.00
2022-08-17T10:35:57.946Z,3360.00
2022-08-17T10:36:57.875Z,3564.00
2022-08-17T10:37:57.806Z,3892.00
2022-08-17T10:38:57.737Z,4360.00
2022-08-17T10:39:57.706Z,4884.00
2022-08-17T10:40:57.597Z,5320.00
2022-08-17T10:41:57.538Z,5640.00
2022-08-17T10:42:57.460Z,5808.00
2022-08-17T10:44:37.573Z,5712.00
2022-08-17T10:44:57.321Z,5392.00
2022-08-17T10:46:10.718Z,4956.00
2022-08-17T10:46:57.180Z,4672.00
2022-08-17T10:48:00.110Z,4520.00
2022-08-17T10:48:57.047Z,4296.00
2022-08-17T10:49:56.972Z,3980.00
2022-08-17T10:50:56.903Z,3764.00
2022-08-17T10:51:57.141Z,3808.00
2022-08-17T10:52:56.762Z,4020.00
2022-08-17T10:53:56.693Z,4236.00
2022-08-17T10:54:58.352Z,4208.00
2022-08-17T10:55:56.588Z,3836.00
2022-08-17T10:56:56.521Z,3540.00
2022-08-17T10:57:56.754Z,3408.00
2022-08-17T10:58:56.381Z,3284.00
2022-08-17T10:59:56.507Z,3168.00
2022-08-17T11:00:56.272Z,3180.00
2022-08-17T11:01:56.172Z,3296.00
2022-08-17T11:02:56.103Z,3416.00
2022-08-17T11:03:55.991Z,3560.00
2022-08-17T11:04:55.922Z,3972.00
2022-08-17T11:05:55.853Z,4348.00
2022-08-17T11:06:55.785Z,4260.00
2022-08-17T11:07:55.714Z,4248.00
2022-08-17T11:08:55.646Z,4332.00
2022-08-17T11:09:55.573Z,4240.00
2022-08-17T11:10:55.506Z,3960.00
2022-08-17T11:11:55.434Z,3968.00
2022-08-17T11:12:55.368Z,3992.00
2022-08-17T11:13:55.300Z,3936.00
2022-08-17T11:14:55.225Z,3768.00
2022-08-17T11:15:59.028Z,3716.00
2022-08-17T11:16:55.088Z,3712.00
2022-08-17T11:17:55.016Z,3712.00
2022-08-17T11:18:54.951Z,3832.00
2022-08-17T11:19:54.877Z,4100.00
2022-08-17T11:20:54.806Z,4332.00
2022-08-17T11:21:54.737Z,4488.00
2022-08-17T11:22:54.669Z,4436.00
2022-08-17T11:23:54.597Z,4348.00
2022-08-17T11:24:54.530Z,4288.00
2022-08-17T11:25:54.508Z,4076.00
2022-08-17T11:26:54.392Z,4072.00
2022-08-17T11:27:54.324Z,4048.00
2022-08-17T11:28:54.249Z,4032.00
2022-08-17T11:29:58.063Z,3952.00
2022-08-17T11:30:54.264Z,3956.00
2022-08-17T11:31:54.040Z,3904.00
2022-08-17T11:32:54.937Z,3760.00
2022-08-17T11:33:53.902Z,3732.00
2022-08-17T11:34:53.831Z,3808.00
2022-08-17T11:35:53.757Z,3920.00
2022-08-17T11:36:53.690Z,3976.00
2022-08-17T11:37:53.619Z,3992.00
2022-08-17T11:38:53.549Z,3980.00
2022-08-17T11:39:53.590Z,4012.00
2022-08-17T11:40:53.410Z,3992.00
2022-08-17T11:41:53.340Z,4104.00
2022-08-17T11:42:53.272Z,4164.00
2022-08-17T11:43:53.200Z,4140.00
2022-08-17T11:44:53.130Z,4172.00
2022-08-17T11:45:53.060Z,4288.00
2022-08-17T11:46:52.994Z,4468.00
2022-08-17T11:48:09.465Z,4676.00
2022-08-17T11:48:52.862Z,4876.00
2022-08-17T11:49:52.782Z,5072.00
2022-08-17T11:50:52.711Z,5296.00
2022-08-17T11:51:52.640Z,5612.00
2022-08-17T11:52:52.571Z,5760.00
2022-08-17T11:54:08.691Z,6040.00
2022-08-17T11:54:52.430Z,6516.00
2022-08-17T11:55:52.360Z,7284.00
2022-08-17T11:56:52.293Z,8300.00
2022-08-17T11:57:52.381Z,9532.00
2022-08-17T11:58:52.159Z,10820.00
2022-08-17T11:59:52.084Z,11732.00
2022-08-17T12:00:52.017Z,12460.00
2022-08-17T12:01:51.949Z,13288.00
2022-08-17T12:02:51.874Z,12692.00
2022-08-17T12:03:54.384Z,13132.00
2022-08-17T12:04:51.832Z,14832.00
2022-08-17T12:06:39.157Z,22304.00
2022-08-17T12:07:39.089Z,19776.00
2022-08-17T12:08:39.017Z,21952.00
2022-08-17T12:09:38.953Z,17920.00
2022-08-17T12:10:38.879Z,16128.00
2022-08-17T12:11:58.616Z,13896.00
2022-08-17T12:12:38.740Z,13376.00
2022-08-17T12:13:39.817Z,16128.00
2022-08-17T12:15:08.469Z,23936.00
2022-08-17T12:15:38.538Z,20160.00
2022-08-17T12:16:38.469Z,14056.00
2022-08-17T12:17:41.271Z,12324.00
2022-08-17T12:18:38.329Z,12004.00
2022-08-17T12:19:38.461Z,11968.00
2022-08-17T12:20:38.191Z,13368.00
2022-08-17T12:21:38.131Z,15400.00
2022-08-17T12:22:38.056Z,37312.00
2022-08-17T12:23:37.986Z,38912.00
2022-08-17T12:24:37.916Z,23168.00
2022-08-17T12:25:37.852Z,29568.00
2022-08-17T12:26:37.780Z,23968.00
2022-08-17T12:28:04.497Z,32416.00
2022-08-17T12:28:37.640Z,18208.00
2022-08-17T12:29:38.711Z,14500.00
2022-08-17T12:30:37.535Z,12200.00
2022-08-17T12:32:25.214Z,9968.00
2022-08-17T12:33:28.431Z,9160.00
2022-08-17T12:34:25.077Z,8832.00
2022-08-17T12:35:25.015Z,9024.00
2022-08-17T12:36:24.942Z,9376.00
2022-08-17T12:37:24.875Z,9372.00
2022-08-17T12:39:14.287Z,9240.00
2022-08-17T12:40:07.384Z,9416.00
2022-08-17T12:41:07.161Z,9768.00
2022-08-17T12:42:07.124Z,10068.00
2022-08-17T12:43:07.053Z,11136.00
2022-08-17T12:44:06.953Z,9536.00
2022-08-17T12:45:07.085Z,8880.00
2022-08-17T12:46:14.849Z,8252.00
2022-08-17T12:47:06.744Z,7940.00
2022-08-17T12:48:06.682Z,7684.00
2022-08-17T12:49:06.606Z,7196.00
2022-08-17T12:50:06.536Z,6868.00
2022-08-17T12:51:06.470Z,7036.00
2022-08-17T12:52:06.402Z,7388.00
2022-08-17T12:53:06.330Z,7888.00
2022-08-17T12:54:06.267Z,8348.00
2022-08-17T12:55:06.196Z,9144.00
2022-08-17T12:56:06.127Z,10740.00
2022-08-17T12:57:06.055Z,11376.00
2022-08-17T12:58:05.984Z,14312.00
2022-08-17T12:59:05.915Z,18272.00
2022-08-17T13:00:05.845Z,60608.00
2022-08-17T13:01:05.777Z,36352.00
2022-08-17T13:02:05.755Z,17376.00
2022-08-17T13:03:05.640Z,12812.00
2022-08-17T13:04:05.572Z,11632.00
2022-08-17T13:05:05.653Z,11672.00
2022-08-17T13:06:05.435Z,10060.00
2022-08-17T13:07:05.367Z,9112.00
2022-08-17T13:08:05.297Z,8836.00
2022-08-17T13:09:05.228Z,9456.00
2022-08-17T13:10:05.346Z,10528.00
2022-08-17T13:11:05.091Z,12040.00
2022-08-17T13:12:05.239Z,15012.00
2022-08-17T13:13:05.011Z,15364.00
2022-08-17T13:14:04.886Z,14804.00
2022-08-17T13:15:04.821Z,13920.00
2022-08-17T13:16:04.750Z,14464.00
2022-08-17T13:17:08.394Z,17408.00
2022-08-17T13:18:04.613Z,15220.00
2022-08-17T13:19:04.545Z,12400.00
2022-08-17T13:20:04.527Z,10484.00
2022-08-17T13:21:04.410Z,9468.00
2022-08-17T13:22:04.413Z,9012.00
2022-08-17T13:23:07.607Z,8832.00
2022-08-17T13:24:04.206Z,8780.00
2022-08-17T13:25:04.138Z,8756.00
2022-08-17T13:26:04.069Z,8832.00
2022-08-17T13:27:08.400Z,8644.00
2022-08-17T13:28:03.932Z,8368.00
2022-08-17T13:29:03.866Z,8000.00
2022-08-17T13:30:03.850Z,7572.00
2022-08-17T13:31:03.730Z,7512.00
2022-08-17T13:32:04.685Z,7704.00
2022-08-17T13:33:04.692Z,7924.00
2022-08-17T13:34:03.531Z,8036.00
2022-08-17T13:35:16.257Z,7936.00
2022-08-17T13:36:03.386Z,7640.00
2022-08-17T13:37:03.321Z,7296.00
2022-08-17T13:38:03.253Z,7124.00
2022-08-17T13:39:03.192Z,7252.00
2022-08-17T13:40:03.212Z,7304.00
2022-08-17T13:41:03.049Z,7388.00
2022-08-17T13:42:02.978Z,7716.00
2022-08-17T13:43:02.911Z,8376.00
2022-08-17T13:44:02.843Z,9420.00
2022-08-17T13:45:02.774Z,10488.00
2022-08-17T13:46:02.706Z,11856.00
2022-08-17T13:47:02.637Z,15164.00
2022-08-17T13:48:02.573Z,21152.00
2022-08-17T13:49:02.505Z,14084.00
2022-08-17T13:50:02.597Z,12940.00
2022-08-17T13:51:02.367Z,12292.00
2022-08-17T13:52:02.310Z,11572.00
2022-08-17T13:53:02.229Z,11072.00
2022-08-17T13:54:02.164Z,11216.00
2022-08-17T13:55:02.095Z,11560.00
2022-08-17T13:56:02.029Z,13088.00
2022-08-17T13:57:01.961Z,13028.00
2022-08-17T13:58:06.810Z,11728.00
2022-08-17T13:59:01.821Z,11128.00
2022-08-17T14:00:01.795Z,10544.00
2022-08-17T14:01:01.716Z,10432.00
2022-08-17T14:14:46.598Z,51168.00
2022-08-17T14:15:54.928Z,49056.00
2022-08-17T14:16:46.471Z,45952.00
2022-08-17T14:17:46.416Z,49568.00
2022-08-17T14:18:56.891Z,48352.00
2022-08-17T14:19:46.283Z,45888.00
2022-08-17T14:20:46.219Z,44576.00
2022-08-17T14:21:46.157Z,39552.00
2022-08-17T14:23:54.251Z,42752.00
2022-08-17T14:24:45.975Z,40512.00
2022-08-17T14:25:45.912Z,35456.00
2022-08-17T14:26:45.850Z,23904.00
2022-08-17T14:27:52.751Z,26272.00
2022-08-17T14:28:54.674Z,21024.00
2022-08-17T14:29:45.667Z,26080.00
2022-08-17T14:30:45.604Z,21952.00
2022-08-17T14:31:52.177Z,30112.00
2022-08-17T14:32:45.482Z,42464.00
2022-08-17T14:33:45.571Z,51392.00
2022-08-17T14:34:45.361Z,63648.00
2022-08-17T14:35:45.298Z,67136.00
2022-08-17T14:36:48.177Z,70496.00
2022-08-17T14:37:45.222Z,69248.00
2022-08-17T14:38:45.113Z,68672.00
2022-08-17T14:39:45.125Z,70816.00
2022-08-17T14:40:44.991Z,70016.00
2022-08-17T14:41:44.934Z,65024.00
2022-08-17T14:42:45.973Z,59904.00
2022-08-17T14:43:44.811Z,52352.00
2022-08-17T14:44:44.751Z,61888.00
2022-08-17T14:45:44.690Z,58784.00
2022-08-17T14:46:44.629Z,58976.00
2022-08-17T14:47:44.608Z,56832.00
2022-08-17T14:48:44.512Z,50912.00
2022-08-17T14:49:47.546Z,40448.00
2022-08-17T14:50:44.391Z,37568.00
2022-08-17T14:51:44.792Z,29920.00
2022-08-17T14:52:44.297Z,16320.00
2022-08-17T14:53:44.214Z,18112.00
2022-08-17T14:54:45.917Z,17152.00
2022-08-17T14:55:44.143Z,19552.00
2022-08-17T14:56:45.261Z,28832.00
2022-08-17T14:58:26.621Z,26976.00
2022-08-17T14:59:26.560Z,22848.00
2022-08-17T15:01:24.052Z,28416.00
2022-08-17T15:02:30.188Z,28416.00
2022-08-17T15:03:23.887Z,26496.00
2022-08-17T15:04:23.829Z,27680.00
2022-08-17T15:05:23.767Z,27424.00
2022-08-17T15:06:23.706Z,26528.00
2022-08-17T15:07:24.293Z,25664.00
2022-08-17T15:08:23.587Z,24736.00
2022-08-17T15:09:23.526Z,24096.00
2022-08-17T15:10:25.841Z,23328.00
2022-08-17T15:11:23.406Z,24000.00
2022-08-17T15:12:27.484Z,24416.00
2022-08-17T15:13:23.287Z,24192.00
2022-08-17T15:14:23.228Z,24064.00
2022-08-17T15:15:23.317Z,23552.00
2022-08-17T15:22:15.272Z,22208.00
2022-08-17T15:23:15.214Z,22176.00
2022-08-17T15:24:15.151Z,22208.00
2022-08-17T15:25:15.094Z,22208.00
2022-08-17T15:26:15.036Z,22112.00
2022-08-17T15:27:14.975Z,22016.00
2022-08-17T15:28:14.913Z,21344.00
2022-08-17T15:29:14.857Z,21984.00
2022-08-17T15:30:14.797Z,21856.00
2022-08-17T15:31:14.740Z,20320.00
2022-08-17T15:32:14.679Z,20864.00
2022-08-17T15:33:14.653Z,20608.00
2022-08-17T15:34:14.559Z,19872.00
2022-08-17T15:36:49.314Z,19552.00
2022-08-17T15:37:47.114Z,19200.00
2022-08-17T15:38:46.926Z,20064.00
2022-08-17T15:39:46.918Z,20096.00
2022-08-17T15:40:46.806Z,19456.00
2022-08-17T15:41:46.750Z,20096.00
2022-08-17T15:42:46.689Z,19776.00
2022-08-17T15:43:46.630Z,16032.00
2022-08-17T15:44:46.568Z,14044.00
2022-08-17T15:45:54.844Z,11696.00
2022-08-17T15:46:46.453Z,12420.00
2022-08-17T15:47:47.295Z,12008.00
2022-08-17T15:48:46.331Z,11364.00
2022-08-17T15:49:46.274Z,11540.00
2022-08-17T15:50:46.214Z,11984.00
2022-08-17T15:54:19.057Z,13128.00
2022-08-17T15:55:11.772Z,13160.00
2022-08-17T15:56:11.715Z,11492.00
2022-08-17T15:57:11.652Z,10880.00
2022-08-17T15:58:11.591Z,9780.00
2022-08-17T15:59:11.530Z,9412.00
2022-08-17T16:00:11.479Z,9232.00
2022-08-17T16:01:18.839Z,8816.00
2022-08-17T16:03:01.512Z,9432.00
2022-08-17T16:03:45.668Z,9640.00
2022-08-17T16:04:30.265Z,9848.00
2022-08-17T16:05:11.243Z,9988.00
2022-08-17T16:06:11.123Z,10220.00
2022-08-17T16:07:11.030Z,9924.00
2022-08-17T16:08:11.213Z,9884.00
2022-08-17T16:09:10.903Z,9652.00
2022-08-17T16:10:14.133Z,8416.00
2022-08-17T16:11:10.776Z,8196.00
2022-08-17T16:12:10.757Z,7940.00
2022-08-17T16:13:17.605Z,7896.00
2022-08-17T16:14:10.585Z,7584.00
2022-08-17T16:15:10.521Z,6892.00
2022-08-17T16:16:10.458Z,6556.00
2022-08-17T16:17:38.535Z,6384.00
2022-08-17T16:18:10.329Z,6176.00
2022-08-17T16:19:10.264Z,5980.00
2022-08-17T16:27:45.410Z,5864.00
2022-08-17T16:28:45.347Z,5736.00
2022-08-17T16:29:45.278Z,5664.00
2022-08-17T16:30:45.215Z,5724.00
2022-08-17T16:31:45.148Z,5768.00
2022-08-17T16:32:45.082Z,5740.00
2022-08-17T16:37:07.510Z,5872.00
2022-08-17T16:38:07.517Z,5772.00
2022-08-17T16:39:07.377Z,5680.00
2022-08-17T16:40:07.432Z,5620.00
2022-08-17T16:41:07.245Z,5404.00
2022-08-17T16:42:07.179Z,5248.00
2022-08-17T16:43:07.116Z,5064.00
2022-08-17T16:44:07.065Z,4924.00
2022-08-17T16:45:06.980Z,4836.00
2022-08-17T16:47:06.847Z,4676.00
2022-08-17T16:48:06.783Z,4600.00
2022-08-17T16:50:07.057Z,4408.00
2022-08-17T16:51:06.586Z,4324.00
2022-08-17T16:52:06.517Z,4264.00
2022-08-17T16:53:06.453Z,4184.00
2022-08-17T16:54:06.384Z,4120.00
2022-08-17T16:55:06.322Z,4100.00
2022-08-17T16:56:06.252Z,4064.00
2022-08-17T16:57:06.191Z,4012.00
2022-08-17T16:58:06.119Z,3932.00
2022-08-17T16:59:30.421Z,3844.00
2022-08-17T17:00:06.136Z,3788.00
2022-08-17T17:01:05.946Z,3748.00
2022-08-17T17:02:05.875Z,3712.00
2022-08-17T17:03:05.789Z,3684.00
2022-08-17T17:06:06.639Z,3572.00
2022-08-17T17:07:05.921Z,3484.00
2022-08-17T17:08:05.452Z,3372.00
2022-08-17T17:09:05.625Z,3276.00
2022-08-17T17:10:06.061Z,3172.00
2022-08-17T17:11:09.023Z,3068.00
2022-08-17T17:12:05.221Z,2968.00
2022-08-17T17:13:05.468Z,2900.00
2022-08-17T17:14:05.285Z,2852.00
2022-08-17T17:15:05.438Z,2828.00
2022-08-17T17:19:04.715Z,2728.00
2022-08-17T17:20:04.646Z,2696.00
2022-08-17T17:21:04.582Z,2664.00
2022-08-17T17:22:05.055Z,2620.00
2022-08-17T17:23:04.679Z,2584.00
2022-08-17T17:24:04.375Z,2552.00
2022-08-17T17:25:04.340Z,2520.00
2022-08-17T17:28:04.106Z,2452.00
2022-08-17T17:29:04.294Z,2424.00
2022-08-17T17:31:46.392Z,2276.00
2022-08-17T17:32:46.328Z,2208.00
2022-08-17T17:33:46.255Z,2136.00
2022-08-17T17:34:50.895Z,2064.00
2022-08-17T17:35:46.121Z,2012.00
2022-08-17T17:36:46.153Z,1956.00
2022-08-17T17:37:45.986Z,1904.00
2022-08-17T17:38:45.917Z,1848.00
2022-08-17T17:39:46.145Z,1784.00
2022-08-17T17:40:45.982Z,1716.00
2022-08-17T17:42:45.642Z,1588.00
2022-08-17T17:43:45.778Z,1520.00
2022-08-17T17:44:45.508Z,1452.00
2022-08-17T17:45:45.678Z,1384.00
2022-08-17T17:49:45.407Z,1180.00
2022-08-17T17:52:06.777Z,1052.00
2022-08-17T17:52:44.961Z,996.00
2022-08-17T17:53:44.893Z,944.00
2022-08-17T17:54:44.821Z,896.00
2022-08-17T17:56:45.121Z,816.00
2022-08-17T17:58:44.581Z,772.00
2022-08-17T17:59:44.491Z,764.00
2022-08-17T18:00:44.405Z,756.00
2022-08-17T18:01:44.448Z,752.00